Huvudsida
METAR-TAF:

METAR-TAF

Flygplatser :

Ivalos flygplats

Ivalo, Finland

latitud: 68-37N, longitud: 027-25E, höjd: 147 m

Aktuellt väderrapport

Denna rapport gjordes för 21 minuter sedan, klockan 09:20 UTC
Vind 13 kt från sydväst
Temperatur 19°C
Fuktighet 40%
Tryck 1017 hPa
Sikt 10 km eller mer
Inga moln under 1 500 m eller inga cumulonimbus

METAR: EFIV 220920Z 22013KT CAVOK 19/05 Q1017

Tid: 12:41 (09:41 UTC)

Väderprognos

Denna rapport gjordes för 1 timme och 20 minuter sedan, klockan 08:21 UTC
Prognos gäller från 22 kl. 09 UTC till 22 kl. 11 UTC
Vind 10 kt från väst/sydväst
Sikt 10 km eller mer
Inga moln under 1 500 m eller inga cumulonimbus

TAF: EFIV 220821Z 2209/2211 24010KT CAVOK

Aktuella väderrapporter och prognoser från 4000 flygplatser (METAR- och TAF-rapporter).

De tillgängliga stationerna syns som gula och röda prickar på kartan.

För musen över prickarna för att se namnen på stationerna.

Klicka sedan för att få väderrapporter och prognoser.

För att ändra kartan: Klicka på de gröna knapparna med ett svart kors på för att zooma in; den gröna knappen med ett streck på för att zooma ut; eller på de gröna pilarna för angränsande kartor.


METAR-TAF: